Terminal Aerodrome Forecast
Issued by NWS

Home | Current Version | Previous Version | Text Only | Print | Product List | Glossary On
Versions: 1 2 3 4 5 6 7 8 9 10 11 12 13 14 15 16
000
FTAK31 PAFA 280525
TAFAFA
TAF
PAFA 280525Z 2806/2912 00000KT P6SM FEW030 FEW050 BKN200
     FM281500 17004KT P6SM SCT020 BKN060 OVC120
     FM281900 VRB04KT 3SM -RA BR OVC020
     FM282100 24008G15KT 1SM -RA BR OVC015
     FM290300 24007KT P6SM VCSH BKN020 BKN040=

USA.gov is the U.S. government's official web portal to all federal, state and local government web resources and services.